Time;durP1;ratioP1;P1;durP2;ratioP2;P2;SDS_P1;SDS_P2;PMS_P1;PMS_P2;Temp;Humidity;BMP_temperature;BMP_pressure;BME280_temperature;BME280_humidity;BME280_pressure;Samples;Min_cycle;Max_cycle;Signal;HPM_P1;HPM_P2
2023/07/30 00:00:39;;;;;;;5.07;0.98;;;;;;;25.53;56.45;100144.91;5036929;28;20040;-77
2023/07/30 00:03:04;;;;;;;5.10;1.30;;;;;;;25.51;56.50;100139.59;5035755;28;20094;-77
2023/07/30 00:05:29;;;;;;;4.83;0.97;;;;;;;25.47;56.57;100144.38;5036727;28;20048;-77
2023/07/30 00:07:55;;;;;;;4.67;0.90;;;;;;;25.44;56.54;100143.66;5037806;28;20055;-77
2023/07/30 00:10:20;;;;;;;5.47;1.10;;;;;;;25.39;57.14;100146.69;5036515;28;20024;-77
2023/07/30 00:12:46;;;;;;;3.60;0.80;;;;;;;25.29;56.98;100140.19;5036486;28;20032;-77
2023/07/30 00:15:12;;;;;;;3.43;0.80;;;;;;;25.16;57.63;100146.41;5037115;28;20026;-77
2023/07/30 00:17:38;;;;;;;4.65;1.15;;;;;;;25.13;57.24;100146.63;5034575;28;20029;-77
2023/07/30 00:20:05;;;;;;;3.65;0.90;;;;;;;25.10;57.33;100135.19;5036832;28;20486;-77
2023/07/30 00:22:30;;;;;;;3.17;0.85;;;;;;;25.07;57.55;100131.72;5034973;28;20032;-77
2023/07/30 00:24:56;;;;;;;3.40;0.90;;;;;;;25.09;57.36;100142.41;5035968;28;20025;-77
2023/07/30 00:27:21;;;;;;;4.13;0.93;;;;;;;25.11;57.19;100136.94;5036716;28;20025;-77
2023/07/30 00:29:46;;;;;;;3.30;0.90;;;;;;;25.10;57.77;100144.13;5036585;28;20036;-77
2023/07/30 00:32:15;;;;;;;5.87;1.10;;;;;;;25.01;57.88;100142.06;5035028;28;20159;-77
2023/07/30 00:34:41;;;;;;;4.97;1.13;;;;;;;24.93;57.64;100140.72;5036843;28;20322;-77
2023/07/30 00:37:06;;;;;;;4.13;1.00;;;;;;;24.88;57.77;100145.56;5036362;28;20025;-77
2023/07/30 00:39:31;;;;;;;5.20;1.00;;;;;;;24.83;58.27;100142.31;5039322;28;20030;-77
2023/07/30 00:41:57;;;;;;;4.80;0.90;;;;;;;24.79;58.00;100146.19;5036290;28;20550;-76
2023/07/30 00:44:22;;;;;;;4.97;1.07;;;;;;;24.77;58.24;100151.66;5036508;28;20033;-76
2023/07/30 00:46:48;;;;;;;4.17;0.90;;;;;;;24.80;57.74;100150.59;5035915;28;20017;-77
2023/07/30 00:49:13;;;;;;;4.57;1.03;;;;;;;24.77;58.15;100154.34;5036641;28;20322;-77
2023/07/30 00:51:42;;;;;;;3.80;0.90;;;;;;;24.75;57.91;100148.19;5036664;28;20497;-77
2023/07/30 00:54:07;;;;;;;3.70;0.90;;;;;;;24.71;58.16;100151.16;5036351;28;20508;-77
2023/07/30 00:56:32;;;;;;;4.50;0.90;;;;;;;24.70;58.26;100149.44;5035950;28;20029;-76
2023/07/30 00:58:58;;;;;;;4.88;0.90;;;;;;;24.69;57.88;100148.56;5036419;28;20017;-77
2023/07/30 01:01:24;;;;;;;5.10;1.00;;;;;;;24.63;58.13;100149.00;5036151;28;20060;-76
2023/07/30 01:03:50;;;;;;;5.97;1.00;;;;;;;24.62;58.10;100158.88;5036528;28;20019;-77
2023/07/30 01:06:15;;;;;;;3.97;1.07;;;;;;;24.63;57.68;100166.00;5037323;28;20758;-77
2023/07/30 01:08:41;;;;;;;5.50;1.23;;;;;;;24.63;57.53;100160.59;5035188;28;20438;-76
2023/07/30 01:11:08;;;;;;;4.73;1.07;;;;;;;24.62;57.75;100163.41;5035738;28;20026;-77
2023/07/30 01:13:35;;;;;;;4.07;1.10;;;;;;;24.63;57.49;100162.44;5036281;28;20036;-76
2023/07/30 01:16:00;;;;;;;5.38;1.25;;;;;;;24.56;57.75;100167.34;5035952;28;20490;-76
2023/07/30 01:18:26;;;;;;;4.87;1.20;;;;;;;24.54;57.58;100166.59;5033364;28;20044;-76
2023/07/30 01:20:57;;;;;;;4.43;0.97;;;;;;;24.53;57.59;100164.88;5035920;28;20029;-77
2023/07/30 01:23:23;;;;;;;4.85;1.00;;;;;;;24.55;57.23;100171.03;5036144;28;20105;-77
2023/07/30 01:25:54;;;;;;;4.33;1.00;;;;;;;24.53;57.37;100175.63;5035741;28;20049;-77
2023/07/30 01:28:21;;;;;;;3.42;1.00;;;;;;;24.48;57.29;100175.06;5036083;28;20385;-76
2023/07/30 01:30:48;;;;;;;4.95;1.13;;;;;;;24.47;57.79;100176.00;5035792;28;20037;-76
2023/07/30 01:33:14;;;;;;;3.75;1.05;;;;;;;24.50;57.46;100176.69;5036036;28;20032;-76
2023/07/30 01:35:41;;;;;;;5.20;0.80;;;;;;;24.50;57.11;100181.22;5035923;28;20025;-77
2023/07/30 01:38:08;;;;;;;3.88;1.10;;;;;;;24.47;57.17;100184.09;5038257;28;20029;-76
2023/07/30 01:40:34;;;;;;;3.58;0.90;;;;;;;24.45;57.22;100183.31;5041571;28;20121;-77
2023/07/30 01:42:59;;;;;;;3.70;1.07;;;;;;;24.38;57.18;100182.88;5039140;28;20034;-77
2023/07/30 01:45:25;;;;;;;5.43;1.20;;;;;;;24.32;57.46;100186.81;5039280;28;20262;-76
2023/07/30 01:47:50;;;;;;;3.53;1.00;;;;;;;24.29;57.35;100176.25;5039265;28;20029;-77
2023/07/30 01:50:16;;;;;;;4.45;1.40;;;;;;;24.29;57.76;100188.81;5038982;28;20036;-76
2023/07/30 01:52:41;;;;;;;5.00;1.10;;;;;;;24.28;57.62;100182.59;5039558;28;20025;-76
2023/07/30 01:55:07;;;;;;;5.37;1.10;;;;;;;24.27;57.40;100180.84;5038863;28;20018;-76
2023/07/30 01:57:32;;;;;;;4.43;1.13;;;;;;;24.22;57.26;100177.56;5039181;28;20029;-76
2023/07/30 01:59:58;;;;;;;7.03;1.13;;;;;;;24.17;57.59;100179.69;5038947;28;20029;-77
2023/07/30 02:02:23;;;;;;;4.50;1.03;;;;;;;24.11;57.72;100180.06;5038727;28;20061;-77
2023/07/30 02:04:48;;;;;;;4.43;0.90;;;;;;;24.02;57.58;100176.13;5038733;28;20053;-77
2023/07/30 02:07:14;;;;;;;6.53;1.10;;;;;;;23.99;57.56;100171.75;5041022;28;20077;-76
2023/07/30 02:09:39;;;;;;;4.97;1.00;;;;;;;23.97;57.51;100168.31;5038983;28;20496;-77
2023/07/30 02:12:05;;;;;;;4.73;1.20;;;;;;;23.97;57.42;100168.31;5038757;28;20025;-77
2023/07/30 02:14:30;;;;;;;4.15;1.00;;;;;;;23.95;57.58;100170.22;5038985;28;20518;-76
2023/07/30 02:16:56;;;;;;;4.57;1.00;;;;;;;23.94;57.74;100169.38;5038742;28;20032;-76
2023/07/30 02:19:21;;;;;;;4.80;1.10;;;;;;;23.92;57.61;100165.03;5036164;28;20118;-76
2023/07/30 02:21:46;;;;;;;4.30;0.80;;;;;;;23.92;57.53;100167.72;5038723;28;20025;-76
2023/07/30 02:24:12;;;;;;;4.03;1.00;;;;;;;23.92;57.08;100165.91;5038604;28;20506;-76
2023/07/30 02:26:38;;;;;;;4.67;0.93;;;;;;;23.96;56.95;100171.97;5038533;28;20389;-76
2023/07/30 02:29:03;;;;;;;4.40;0.88;;;;;;;23.97;56.80;100173.69;5038502;28;20033;-76
2023/07/30 02:31:29;;;;;;;4.30;0.90;;;;;;;23.89;56.64;100162.53;5038381;28;20418;-77
2023/07/30 02:33:54;;;;;;;4.80;0.80;;;;;;;23.84;56.76;100178.09;5038654;28;20017;-77
2023/07/30 02:36:20;;;;;;;4.80;0.80;;;;;;;23.79;56.92;100187.31;5038274;28;20025;-77
2023/07/30 02:38:45;;;;;;;6.32;1.00;;;;;;;23.72;56.70;100180.56;5039816;28;20027;-77
2023/07/30 02:41:11;;;;;;;4.77;0.83;;;;;;;23.69;56.74;100174.53;5038197;28;20037;-76
2023/07/30 02:43:36;;;;;;;4.53;0.67;;;;;;;23.65;56.46;100177.41;5038261;28;20021;-76
2023/07/30 02:46:01;;;;;;;5.37;0.87;;;;;;;23.63;56.88;100184.69;5038057;28;20017;-76
2023/07/30 02:48:27;;;;;;;5.93;0.90;;;;;;;23.58;56.68;100186.78;5037785;28;20517;-76
2023/07/30 02:50:52;;;;;;;4.70;0.90;;;;;;;23.59;56.82;100184.97;5038256;28;20033;-76
2023/07/30 02:53:17;;;;;;;5.40;0.83;;;;;;;23.62;56.48;100185.63;5037876;28;20029;-76
2023/07/30 02:55:43;;;;;;;5.00;0.90;;;;;;;23.64;56.48;100182.88;5016915;28;20021;-76
2023/07/30 02:58:08;;;;;;;3.90;0.80;;;;;;;23.65;56.63;100182.78;5033735;28;20026;-76
2023/07/30 03:00:33;;;;;;;3.30;0.80;;;;;;;23.66;56.75;100186.31;5037662;28;20021;-76
2023/07/30 03:02:59;;;;;;;4.53;0.73;;;;;;;23.67;56.51;100181.81;5037786;28;20022;-76
2023/07/30 03:05:26;;;;;;;4.90;0.80;;;;;;;23.66;56.80;100186.31;5036382;28;20084;-76
2023/07/30 03:07:51;;;;;;;6.38;1.10;;;;;;;23.69;56.63;100185.28;5039066;28;20075;-76
2023/07/30 03:10:17;;;;;;;4.23;0.90;;;;;;;23.68;56.87;100195.16;5036208;28;20579;-76
2023/07/30 03:12:42;;;;;;;4.67;0.90;;;;;;;23.62;57.01;100190.16;5037696;28;20100;-77
2023/07/30 03:15:08;;;;;;;5.23;0.83;;;;;;;23.56;57.19;100193.22;5037713;28;20055;-77
2023/07/30 03:17:34;;;;;;;5.17;1.00;;;;;;;23.53;56.92;100193.41;5034752;28;20253;-77
2023/07/30 03:19:59;;;;;;;5.10;0.93;;;;;;;23.49;57.26;100200.78;5037606;28;20036;-76
2023/07/30 03:22:24;;;;;;;5.15;0.70;;;;;;;23.49;57.10;100188.19;5037361;28;20032;-77
2023/07/30 03:24:50;;;;;;;3.00;0.80;;;;;;;23.50;56.94;100194.44;5037225;28;20025;-76
2023/07/30 03:27:15;;;;;;;4.60;0.80;;;;;;;23.50;57.11;100199.81;5037646;28;20021;-76
2023/07/30 03:29:41;;;;;;;5.90;1.10;;;;;;;23.46;56.93;100199.13;5037522;28;20029;-77
2023/07/30 03:32:06;;;;;;;5.70;0.80;;;;;;;23.42;57.28;100208.34;5037190;28;20017;-77
2023/07/30 03:34:32;;;;;;;5.63;1.03;;;;;;;23.39;57.40;100205.84;5036980;28;20029;-77
2023/07/30 03:37:00;;;;;;;4.87;0.90;;;;;;;23.36;57.08;100211.38;5037212;28;20025;-76
2023/07/30 03:39:25;;;;;;;5.20;0.90;;;;;;;23.37;57.48;100213.97;5040228;28;20295;-77
2023/07/30 03:41:51;;;;;;;5.53;1.10;;;;;;;23.39;57.41;100215.69;5037160;28;20029;-77
2023/07/30 03:44:16;;;;;;;4.43;0.90;;;;;;;23.37;57.40;100211.28;5035782;28;20068;-77
2023/07/30 03:46:41;;;;;;;4.63;1.10;;;;;;;23.36;57.32;100216.75;5036946;28;20079;-76
2023/07/30 03:49:07;;;;;;;6.17;1.00;;;;;;;23.31;57.44;100211.66;5037123;28;20139;-76
2023/07/30 03:51:32;;;;;;;4.40;0.90;;;;;;;23.29;57.57;100218.09;5035942;28;20745;-77
2023/07/30 03:53:58;;;;;;;7.20;1.10;;;;;;;23.30;57.49;100220.66;5037034;28;20021;-77
2023/07/30 03:56:25;;;;;;;4.40;1.10;;;;;;;23.27;57.98;100228.91;5036678;28;20482;-76
2023/07/30 03:58:50;;;;;;;4.55;0.85;;;;;;;23.25;57.84;100227.22;5036922;28;20033;-77
2023/07/30 04:01:15;;;;;;;3.93;0.90;;;;;;;23.16;58.03;100221.44;5036324;28;20025;-77
2023/07/30 04:03:41;;;;;;;3.45;0.88;;;;;;;23.11;57.99;100231.59;5036958;28;20055;-76
2023/07/30 04:06:06;;;;;;;3.67;0.93;;;;;;;23.05;58.19;100231.94;5038544;28;20069;-77
2023/07/30 04:08:32;;;;;;;6.33;1.27;;;;;;;23.03;58.13;100241.88;5037492;28;20052;-77
2023/07/30 04:10:57;;;;;;;6.00;0.97;;;;;;;23.04;58.27;100240.97;5036708;28;20033;-77
2023/07/30 04:13:22;;;;;;;5.87;0.90;;;;;;;23.03;58.35;100241.88;5036744;28;20529;-76
2023/07/30 04:15:48;;;;;;;5.97;1.33;;;;;;;23.02;58.38;100245.53;5036895;28;20032;-76
2023/07/30 04:18:13;;;;;;;5.63;0.93;;;;;;;23.02;58.25;100240.16;5033985;28;20025;-76
2023/07/30 04:20:39;;;;;;;5.13;1.07;;;;;;;23.01;58.57;100251.84;5036814;28;20398;-76
2023/07/30 04:23:04;;;;;;;4.88;0.98;;;;;;;22.99;58.45;100260.00;5036562;28;20445;-76
2023/07/30 04:25:29;;;;;;;6.80;0.93;;;;;;;22.98;58.77;100260.06;5036572;28;20025;-77
2023/07/30 04:27:55;;;;;;;4.43;0.90;;;;;;;22.90;59.19;100260.50;5035340;28;20183;-77
2023/07/30 04:30:20;;;;;;;4.20;1.20;;;;;;;22.85;59.45;100266.16;5036439;28;20397;-77
2023/07/30 04:32:46;;;;;;;9.60;1.10;;;;;;;22.79;59.56;100266.50;5036675;28;20025;-76
2023/07/30 04:35:11;;;;;;;5.55;1.13;;;;;;;22.78;59.76;100272.78;5036659;28;20017;-76
2023/07/30 04:37:36;;;;;;;5.93;1.30;;;;;;;22.75;59.75;100262.22;5036547;28;20028;-77
2023/07/30 04:40:02;;;;;;;5.20;1.03;;;;;;;22.78;59.66;100264.72;5039390;28;20033;-77
2023/07/30 04:42:28;;;;;;;6.43;1.23;;;;;;;22.75;60.04;100270.28;5023388;28;20022;-77
2023/07/30 04:44:53;;;;;;;5.53;1.30;;;;;;;22.71;60.19;100263.34;5036653;28;20045;-77
2023/07/30 04:47:18;;;;;;;4.63;1.30;;;;;;;22.68;60.46;100268.88;5035100;28;20029;-77
2023/07/30 04:49:44;;;;;;;6.20;1.17;;;;;;;22.69;60.42;100270.63;5036724;28;20109;-76
2023/07/30 04:52:10;;;;;;;7.63;1.30;;;;;;;22.67;60.79;100267.16;5036387;28;20045;-77
2023/07/30 04:54:38;;;;;;;5.45;1.20;;;;;;;22.64;60.74;100263.69;5036306;28;20033;-76
2023/07/30 04:57:05;;;;;;;7.50;1.30;;;;;;;22.65;60.67;100273.47;5036625;28;20029;-76
2023/07/30 04:59:33;;;;;;;6.30;1.30;;;;;;;22.63;60.84;100275.38;5036247;28;20022;-77
2023/07/30 05:01:59;;;;;;;10.93;1.52;;;;;;;22.61;60.92;100279.97;5036341;28;20385;-76
2023/07/30 05:04:24;;;;;;;5.63;1.30;;;;;;;22.57;60.95;100278.41;5036273;28;20045;-76
2023/07/30 05:06:49;;;;;;;6.40;1.20;;;;;;;22.56;61.08;100275.78;5035591;28;20021;-76
2023/07/30 05:09:15;;;;;;;5.60;1.37;;;;;;;22.58;61.36;100280.16;5036308;28;20037;-76
2023/07/30 05:11:40;;;;;;;5.60;1.10;;;;;;;22.61;61.00;100288.03;5037891;28;20100;-77
2023/07/30 05:14:05;;;;;;;8.60;1.30;;;;;;;22.60;60.99;100288.09;5040105;28;20026;-77
2023/07/30 05:16:31;;;;;;;5.63;1.27;;;;;;;22.58;61.00;100285.50;5039970;28;20088;-77
2023/07/30 05:18:56;;;;;;;9.13;1.27;;;;;;;22.60;61.16;100288.97;5038902;28;20504;-76
2023/07/30 05:21:21;;;;;;;7.33;1.23;;;;;;;22.62;61.15;100297.81;5039908;28;20478;-77
2023/07/30 05:23:47;;;;;;;4.95;1.10;;;;;;;22.60;60.92;100288.97;5038620;28;20440;-77
2023/07/30 05:26:12;;;;;;;5.73;1.20;;;;;;;22.62;61.18;100292.44;5039475;28;20030;-76
2023/07/30 05:28:37;;;;;;;5.77;1.00;;;;;;;22.67;61.06;100283.25;5039911;28;20021;-77
2023/07/30 05:31:03;;;;;;;7.83;1.57;;;;;;;22.68;60.94;100288.56;5039774;28;20032;-77
2023/07/30 05:33:28;;;;;;;5.90;1.27;;;;;;;22.68;60.98;100282.31;5039989;28;20061;-77
2023/07/30 05:35:54;;;;;;;7.87;1.30;;;;;;;22.69;60.87;100286.72;5039622;28;20021;-76
2023/07/30 05:38:19;;;;;;;8.40;1.30;;;;;;;22.72;61.03;100286.56;5041732;28;20344;-76
2023/07/30 05:40:44;;;;;;;5.60;1.17;;;;;;;22.73;61.16;100285.59;5040292;28;20041;-77
2023/07/30 05:43:10;;;;;;;8.93;1.63;;;;;;;22.74;60.75;100290.91;5039656;28;20390;-76
2023/07/30 05:45:35;;;;;;;7.43;1.20;;;;;;;22.75;60.94;100297.13;5039444;28;20036;-76
2023/07/30 05:48:00;;;;;;;4.57;1.00;;;;;;;22.74;60.70;100300.75;5039355;28;20068;-76
2023/07/30 05:50:26;;;;;;;9.17;1.50;;;;;;;22.69;61.08;100309.09;5039452;28;20276;-76
2023/07/30 05:52:51;;;;;;;5.60;1.37;;;;;;;22.69;61.01;100313.56;5039794;28;20021;-76
2023/07/30 05:55:17;;;;;;;5.57;1.27;;;;;;;22.68;61.08;100311.84;5038979;28;20022;-76
2023/07/30 05:57:42;;;;;;;7.07;1.20;;;;;;;22.68;61.05;100309.16;5039491;28;20102;-76
2023/07/30 06:00:08;;;;;;;6.38;1.23;;;;;;;22.65;60.85;100308.38;5039075;28;20026;-76
2023/07/30 06:02:33;;;;;;;7.40;1.37;;;;;;;22.65;61.17;100313.75;5038968;28;20040;-76
2023/07/30 06:04:59;;;;;;;5.03;1.20;;;;;;;22.68;60.94;100311.84;5039086;28;20076;-76
2023/07/30 06:07:24;;;;;;;5.87;1.00;;;;;;;22.70;61.03;100310.81;5040200;28;20030;-77
2023/07/30 06:09:50;;;;;;;6.23;1.13;;;;;;;22.74;60.82;100311.50;5038924;28;20398;-76
2023/07/30 06:12:15;;;;;;;7.03;1.50;;;;;;;22.75;61.07;100318.59;5037571;28;20072;-76
2023/07/30 06:14:40;;;;;;;6.60;1.20;;;;;;;22.77;60.80;100322.94;5039115;28;20018;-76
2023/07/30 06:17:06;;;;;;;7.65;1.17;;;;;;;22.79;60.77;100337.16;5037960;28;20115;-76
2023/07/30 06:19:31;;;;;;;6.63;1.23;;;;;;;22.76;60.86;100331.06;5037103;28;20063;-77
2023/07/30 06:21:56;;;;;;;5.70;1.33;;;;;;;22.70;60.78;100334.97;5038870;28;20029;-77
2023/07/30 06:24:22;;;;;;;6.13;1.17;;;;;;;22.65;60.92;100340.59;5037743;28;20061;-76
2023/07/30 06:26:47;;;;;;;6.53;1.37;;;;;;;22.63;61.08;100337.13;5038776;28;20021;-76
2023/07/30 06:29:12;;;;;;;6.72;1.20;;;;;;;22.57;61.45;100347.31;5038835;28;20490;-77
2023/07/30 06:31:38;;;;;;;6.40;1.43;;;;;;;22.53;61.58;100351.97;5038682;28;20029;-76
2023/07/30 06:34:04;;;;;;;5.37;1.17;;;;;;;22.49;61.97;100350.38;5038567;28;20029;-76
2023/07/30 06:36:29;;;;;;;9.52;1.38;;;;;;;22.44;62.19;100356.00;5038513;28;20060;-76
2023/07/30 06:38:54;;;;;;;8.23;1.93;;;;;;;22.38;62.30;100364.34;5041487;28;20044;-76
2023/07/30 06:41:21;;;;;;;5.10;1.30;;;;;;;22.37;62.56;100363.47;5038362;28;20057;-76
2023/07/30 06:43:46;;;;;;;8.05;1.48;;;;;;;22.37;62.90;100366.16;5038550;28;20494;-77
2023/07/30 06:46:11;;;;;;;8.47;1.47;;;;;;;22.42;62.75;100365.06;5038401;28;20025;-76
2023/07/30 06:48:37;;;;;;;6.73;1.20;;;;;;;22.50;62.79;100362.84;5038345;28;20842;-76
2023/07/30 06:51:06;;;;;;;11.87;1.70;;;;;;;22.56;62.28;100356.31;5038506;28;20108;-76
2023/07/30 06:53:31;;;;;;;6.35;1.40;;;;;;;22.61;62.27;100359.59;5038282;28;20052;-76
2023/07/30 06:55:56;;;;;;;7.60;1.33;;;;;;;22.62;62.08;100362.22;5038201;28;20053;-77
2023/07/30 06:58:22;;;;;;;6.85;1.30;;;;;;;22.67;61.81;100364.66;5038031;28;20030;-77
2023/07/30 07:00:47;;;;;;;9.33;1.50;;;;;;;22.68;61.81;100360.16;5037976;28;20175;-77
2023/07/30 07:03:12;;;;;;;7.43;1.30;;;;;;;22.71;61.54;100366.25;5038057;28;20037;-77
2023/07/30 07:05:38;;;;;;;8.57;1.10;;;;;;;22.78;61.18;100362.25;5037956;28;20132;-77
2023/07/30 07:08:03;;;;;;;7.50;1.30;;;;;;;22.85;60.59;100361.94;5039076;28;20029;-77
2023/07/30 07:10:29;;;;;;;5.53;1.13;;;;;;;22.88;60.69;100365.31;5037797;28;20025;-77
2023/07/30 07:12:54;;;;;;;9.93;1.33;;;;;;;22.95;60.37;100360.50;5037990;28;20032;-77
2023/07/30 07:15:19;;;;;;;7.80;1.50;;;;;;;23.05;60.11;100364.41;5036579;28;20021;-77
2023/07/30 07:17:45;;;;;;;5.83;1.30;;;;;;;23.15;59.83;100359.38;5035148;28;20025;-77
2023/07/30 07:20:11;;;;;;;6.60;1.20;;;;;;;23.16;59.47;100361.13;5037672;28;20276;-77
2023/07/30 07:22:36;;;;;;;5.28;1.15;;;;;;;23.18;59.39;100358.38;5037572;28;20029;-77
2023/07/30 07:25:02;;;;;;;6.13;1.43;;;;;;;23.22;59.28;100355.41;5036173;28;20036;-77
2023/07/30 07:27:28;;;;;;;6.63;1.42;;;;;;;23.21;59.21;100358.19;5037559;28;20040;-77
2023/07/30 07:29:53;;;;;;;7.17;1.33;;;;;;;23.19;59.13;100360.94;5037646;28;20030;-77
2023/07/30 07:32:19;;;;;;;7.20;1.40;;;;;;;23.22;58.79;100360.78;5037448;28;20140;-77
2023/07/30 07:34:50;;;;;;;7.90;1.60;;;;;;;23.27;59.13;100360.56;5036728;28;20028;-77
2023/07/30 07:37:18;;;;;;;7.65;1.33;;;;;;;23.36;58.73;100368.09;5034264;28;20018;-77
2023/07/30 07:39:44;;;;;;;6.72;1.20;;;;;;;23.47;58.45;100366.63;5029291;28;20025;-77
2023/07/30 07:42:09;;;;;;;8.35;1.40;;;;;;;23.48;58.25;100361.16;5035621;28;20040;-77
2023/07/30 07:44:35;;;;;;;9.47;1.47;;;;;;;23.49;58.47;100364.72;5036395;28;20025;-77
2023/07/30 07:47:00;;;;;;;5.43;1.50;;;;;;;23.50;58.28;100374.53;5035568;28;20028;-81
2023/07/30 07:49:26;;;;;;;6.43;1.33;;;;;;;23.49;58.19;100362.88;5037339;28;20115;-77
2023/07/30 07:51:51;;;;;;;5.33;1.23;;;;;;;23.51;58.03;100363.69;5035286;28;20027;-78
2023/07/30 07:54:17;;;;;;;7.87;1.30;;;;;;;23.57;57.98;100372.34;5036845;28;20032;-78
2023/07/30 07:56:42;;;;;;;6.78;1.27;;;;;;;23.54;58.32;100373.38;5036863;28;20029;-78
2023/07/30 07:59:07;;;;;;;9.30;1.13;;;;;;;23.56;57.97;100373.31;5037045;28;20060;-78
2023/07/30 08:01:33;;;;;;;5.97;1.40;;;;;;;23.58;57.90;100382.16;5036400;28;20026;-79
2023/07/30 08:03:58;;;;;;;6.80;1.30;;;;;;;23.60;57.96;100374.88;5036931;28;20060;-75
2023/07/30 08:06:24;;;;;;;7.90;1.50;;;;;;;23.64;57.80;100381.78;5038207;28;20030;-81
